createdAt,value
2023-01-10T00:04:42.795Z,1.97
2023-01-10T00:09:50.899Z,2.23
2023-01-10T00:14:55.357Z,2.13
2023-01-10T00:19:59.988Z,2.60
2023-01-10T00:25:09.910Z,2.77
2023-01-10T00:30:15.513Z,3.23
2023-01-10T00:35:20.511Z,3.53
2023-01-10T00:40:28.997Z,3.40
2023-01-10T00:45:32.594Z,3.40
2023-01-10T00:50:40.143Z,3.47
2023-01-10T00:55:47.723Z,3.63
2023-01-10T01:00:55.116Z,3.90
2023-01-10T01:06:13.248Z,3.57
2023-01-10T01:11:19.618Z,3.37
2023-01-10T01:16:24.618Z,3.33
2023-01-10T01:21:32.363Z,3.50
2023-01-10T01:26:37.895Z,3.33
2023-01-10T01:31:53.119Z,3.70
2023-01-10T01:36:59.003Z,4.20
2023-01-10T01:42:10.783Z,3.77
2023-01-10T01:47:25.379Z,3.87
2023-01-10T01:52:32.896Z,4.00
2023-01-10T01:57:39.764Z,4.20
2023-01-10T02:03:02.193Z,4.33
2023-01-10T02:08:11.438Z,4.37
2023-01-10T02:13:22.190Z,4.27
2023-01-10T02:18:27.744Z,4.10
2023-01-10T02:24:03.043Z,4.47
2023-01-10T02:30:18.351Z,3.90
2023-01-10T02:41:32.422Z,4.93
2023-01-10T02:46:39.916Z,5.27
2023-01-10T02:51:54.404Z,5.37
2023-01-10T02:57:24.231Z,5.33
2023-01-10T03:03:00.743Z,5.27
2023-01-10T03:08:18.529Z,4.40
2023-01-10T03:13:37.421Z,4.30
2023-01-10T03:19:03.655Z,4.20
2023-01-10T03:24:35.369Z,4.23
2023-01-10T03:29:46.761Z,4.03
2023-01-10T03:34:55.165Z,4.57
2023-01-10T03:40:21.729Z,4.80
2023-01-10T03:45:52.758Z,4.43
2023-01-10T03:51:05.719Z,3.67
2023-01-10T03:56:18.299Z,3.67
2023-01-10T04:01:24.287Z,3.57
2023-01-10T04:06:31.996Z,3.70
2023-01-10T04:11:39.992Z,4.07
2023-01-10T04:16:55.100Z,3.70
2023-01-10T04:21:59.825Z,3.67
2023-01-10T04:27:05.509Z,3.80
2023-01-10T04:32:35.790Z,3.97
2023-01-10T04:37:43.186Z,4.80
2023-01-10T04:42:47.116Z,4.13
2023-01-10T04:47:57.711Z,3.87
2023-01-10T04:53:17.888Z,4.50
2023-01-10T04:58:26.450Z,4.30
2023-01-10T05:03:43.288Z,3.93
2023-01-10T05:09:00.984Z,4.80
2023-01-10T05:14:11.449Z,3.87
2023-01-10T05:19:25.617Z,4.50
2023-01-10T05:24:30.597Z,4.83
2023-01-10T05:29:36.929Z,5.20
2023-01-10T05:34:47.016Z,5.47
2023-01-10T05:39:53.872Z,5.70
2023-01-10T05:44:59.683Z,5.70
2023-01-10T05:50:18.957Z,5.63
2023-01-10T05:55:30.702Z,4.83
2023-01-10T06:00:40.194Z,4.50
2023-01-10T06:05:50.492Z,4.93
2023-01-10T06:10:55.891Z,4.80
2023-01-10T06:15:59.501Z,4.40
2023-01-10T06:21:05.825Z,4.70
2023-01-10T06:26:13.419Z,3.90
2023-01-10T06:31:17.873Z,3.70
2023-01-10T06:36:24.323Z,3.40
2023-01-10T06:41:30.562Z,3.33
2023-01-10T06:46:41.288Z,3.33
2023-01-10T06:52:07.266Z,3.33
2023-01-10T06:57:17.574Z,3.90
2023-01-10T07:02:23.915Z,3.17
2023-01-10T07:07:34.163Z,2.53
2023-01-10T07:12:40.298Z,2.20
2023-01-10T07:17:44.530Z,2.40
2023-01-10T07:22:57.241Z,1.80
2023-01-10T07:28:01.574Z,2.00
2023-01-10T07:33:11.360Z,2.63
2023-01-10T07:38:18.294Z,1.77
2023-01-10T07:43:29.376Z,2.17
2023-01-10T07:48:35.405Z,3.40
2023-01-10T07:53:58.958Z,2.93
2023-01-10T07:59:03.358Z,1.80
2023-01-10T08:04:13.551Z,2.00
2023-01-10T08:09:22.868Z,1.87
2023-01-10T08:14:32.178Z,2.00
2023-01-10T08:19:38.182Z,2.37
2023-01-10T08:24:46.132Z,2.13
2023-01-10T08:29:55.009Z,2.73
2023-01-10T08:35:03.576Z,2.37
2023-01-10T08:40:12.277Z,2.20
2023-01-10T08:45:18.067Z,1.80
2023-01-10T08:50:35.025Z,2.17
2023-01-10T08:55:47.203Z,2.30
2023-01-10T09:00:59.086Z,2.30
2023-01-10T09:06:07.826Z,2.20
2023-01-10T09:11:18.301Z,2.80
2023-01-10T09:16:22.128Z,2.30
2023-01-10T09:21:26.384Z,2.60
2023-01-10T09:26:33.110Z,2.53
2023-01-10T09:31:38.478Z,3.33
2023-01-10T09:36:45.735Z,2.43
2023-01-10T09:42:14.567Z,2.37
2023-01-10T09:47:36.503Z,2.50
2023-01-10T09:53:06.530Z,2.73
2023-01-10T09:58:16.973Z,2.13
2023-01-10T10:03:28.097Z,2.00
2023-01-10T10:08:34.732Z,2.10
2023-01-10T10:13:54.933Z,2.40
2023-01-10T10:19:08.320Z,1.93
2023-01-10T10:24:45.039Z,2.23
2023-01-10T10:30:20.612Z,2.17
2023-01-10T10:35:31.602Z,2.30
2023-01-10T10:40:53.726Z,2.03
2023-01-10T10:46:06.734Z,2.43
2023-01-10T10:51:14.545Z,2.60
2023-01-10T10:56:23.077Z,1.77
2023-01-10T11:01:30.513Z,1.50
2023-01-10T11:06:41.042Z,1.70
2023-01-10T11:11:50.841Z,1.80
2023-01-10T11:17:20.079Z,1.60
2023-01-10T11:22:24.307Z,1.67
2023-01-10T11:27:34.906Z,1.50
2023-01-10T11:32:56.053Z,1.87
2023-01-10T11:38:06.468Z,1.73
2023-01-10T11:43:27.078Z,1.60
2023-01-10T11:49:05.402Z,1.60
2023-01-10T11:54:18.174Z,1.50
2023-01-10T11:59:25.879Z,1.63
2023-01-10T12:04:36.518Z,2.10
2023-01-10T12:09:42.789Z,1.80
2023-01-10T12:14:49.470Z,1.93
2023-01-10T12:20:01.027Z,1.80
2023-01-10T12:25:19.352Z,1.80
2023-01-10T12:30:32.959Z,1.70
2023-01-10T12:35:46.783Z,1.60
2023-01-10T12:41:00.493Z,1.93
2023-01-10T12:46:33.614Z,2.00
2023-01-10T12:51:48.082Z,1.73
2023-01-10T12:56:54.185Z,2.10
2023-01-10T13:02:04.894Z,2.03
2023-01-10T13:07:20.993Z,2.67
2023-01-10T13:12:36.633Z,2.30
2023-01-10T13:17:49.598Z,2.40
2023-01-10T13:22:59.974Z,2.27
2023-01-10T13:28:14.489Z,2.10
2023-01-10T13:33:30.533Z,2.50
2023-01-10T13:38:49.527Z,2.50
2023-01-10T13:44:08.729Z,2.33
2023-01-10T13:49:47.122Z,2.10
2023-01-10T13:55:00.681Z,2.60
2023-01-10T14:00:23.480Z,2.50
2023-01-10T14:05:48.652Z,2.23
2023-01-10T14:11:10.450Z,2.20
2023-01-10T14:16:31.539Z,1.97
2023-01-10T14:21:48.459Z,2.13
2023-01-10T14:27:01.580Z,2.10
2023-01-10T14:32:19.560Z,1.70
2023-01-10T14:37:33.000Z,2.43
2023-01-10T14:42:40.893Z,2.47
2023-01-10T14:47:50.171Z,2.03
2023-01-10T14:52:54.154Z,1.60
2023-01-10T14:58:11.439Z,1.90
2023-01-10T15:03:20.868Z,1.87
2023-01-10T15:08:34.510Z,1.63
2023-01-10T15:13:51.044Z,2.83
2023-01-10T15:18:56.741Z,2.13
2023-01-10T15:24:03.132Z,3.60
2023-01-10T15:29:15.358Z,1.90
2023-01-10T15:34:24.975Z,2.27
2023-01-10T15:39:32.430Z,1.87
2023-01-10T15:44:45.437Z,1.67
2023-01-10T15:49:55.595Z,1.87
2023-01-10T15:55:02.700Z,1.90
2023-01-10T16:00:23.813Z,1.97
2023-01-10T16:05:32.975Z,2.30
2023-01-10T16:10:38.690Z,2.20
2023-01-10T16:15:54.983Z,2.47
2023-01-10T16:21:08.557Z,2.00
2023-01-10T16:26:21.779Z,1.77
2023-01-10T16:36:55.429Z,2.00
2023-01-10T16:42:17.579Z,1.70
2023-01-10T16:47:46.924Z,1.67
2023-01-10T16:58:34.644Z,1.80
2023-01-10T17:04:00.893Z,1.33
2023-01-10T17:09:08.674Z,1.50
2023-01-10T17:14:19.355Z,1.70
2023-01-10T17:19:26.751Z,1.83
2023-01-10T17:24:32.342Z,1.70
2023-01-10T17:29:38.027Z,1.57
2023-01-10T17:34:45.791Z,2.00
2023-01-10T17:40:10.391Z,2.63
2023-01-10T17:45:16.721Z,2.43
2023-01-10T17:50:24.857Z,2.60
2023-01-10T17:55:35.776Z,1.90
2023-01-10T18:06:22.800Z,2.10
2023-01-10T18:11:26.724Z,2.30
2023-01-10T18:16:29.916Z,2.30
2023-01-10T18:21:34.593Z,2.17
2023-01-10T18:26:39.824Z,1.80
2023-01-10T18:31:43.904Z,1.80
2023-01-10T18:36:48.524Z,2.10
2023-01-10T18:41:51.783Z,1.80
2023-01-10T18:46:55.284Z,1.93
2023-01-10T18:52:00.090Z,3.00
2023-01-10T18:57:03.253Z,2.40
2023-01-10T19:02:07.064Z,2.10
2023-01-10T19:07:11.638Z,2.73
2023-01-10T19:12:14.791Z,2.87
2023-01-10T19:17:18.483Z,2.07
2023-01-10T19:22:23.554Z,2.13
2023-01-10T19:27:27.334Z,1.80
2023-01-10T19:32:30.507Z,2.00
2023-01-10T19:37:35.901Z,1.83
2023-01-10T19:42:39.844Z,2.27
2023-01-10T19:47:43.180Z,2.50
2023-01-10T19:52:49.818Z,2.60
2023-01-10T19:57:54.409Z,2.00
2023-01-10T20:03:01.532Z,1.87
2023-01-10T20:08:06.707Z,2.40
2023-01-10T20:13:10.501Z,1.90
2023-01-10T20:18:14.062Z,2.00
2023-01-10T20:23:22.685Z,1.93
2023-01-10T20:28:26.671Z,1.97
2023-01-10T20:33:34.427Z,2.27
2023-01-10T20:38:41.688Z,2.20
2023-01-10T20:43:45.989Z,2.50
2023-01-10T20:48:53.923Z,2.10
2023-01-10T20:53:59.772Z,2.43
2023-01-10T20:59:03.929Z,2.80
2023-01-10T21:04:14.499Z,2.07
2023-01-10T21:09:21.094Z,1.87
2023-01-10T21:14:27.896Z,2.50
2023-01-10T21:19:34.468Z,2.77
2023-01-10T21:24:39.681Z,2.20
2023-01-10T21:29:42.818Z,2.73
2023-01-10T21:34:46.075Z,1.77
2023-01-10T21:39:57.169Z,2.20
2023-01-10T21:45:01.095Z,2.10
2023-01-10T21:50:08.394Z,2.50
2023-01-10T21:55:16.301Z,2.97
2023-01-10T22:00:28.706Z,2.33
2023-01-10T22:05:54.556Z,2.40
2023-01-10T22:11:00.389Z,2.60
2023-01-10T22:16:05.138Z,1.90
2023-01-10T22:21:10.883Z,1.93
2023-01-10T22:26:18.249Z,1.73
2023-01-10T22:31:25.937Z,2.00
2023-01-10T22:36:29.267Z,2.40
2023-01-10T22:41:33.906Z,1.80
2023-01-10T22:46:36.971Z,1.40
2023-01-10T22:51:40.017Z,1.90
2023-01-10T22:56:44.675Z,2.13
2023-01-10T23:01:49.621Z,1.83
2023-01-10T23:06:52.842Z,1.97
2023-01-10T23:11:58.440Z,2.80
2023-01-10T23:17:01.854Z,2.00
2023-01-10T23:22:05.057Z,2.07
2023-01-10T23:27:09.686Z,1.93
2023-01-10T23:32:12.783Z,2.07
2023-01-10T23:37:16.072Z,1.80
2023-01-10T23:42:20.645Z,1.97
2023-01-10T23:47:32.478Z,1.70
2023-01-10T23:52:35.745Z,2.37
2023-01-10T23:57:40.278Z,1.20
